»·PEaware :: WAT3512 KGTF-KBLI

WAT3512 :: KGTF-KBLI

FLIGHT INFORMATION

Flight Status: Arrived
Operator:
Walker Air Transport
More flights by this operator :: More flights under this callsign
Pilot: Richard A. (43314)
Aircraft: EMBRAER PHENOM 300
(E55P)
More flights by this aircraft type
Origin: KGTF Great Falls Intl
United States
Destination: KBLI Bellingham Intl
United States
More flights between these airports :: More routes between these airports
Route: GTF J36 MLP J136 GEG PAE MADEE4
File this flight plan on PilotEdge
Remarks: RMK / SIMBRIEF
Altitude:
(Current/Filed)
38,000ft
Speed:
(Current/Filed)
414kts
Departed: 21-Aug-23 09:30 AM
Arrived: 21-Aug-23 11:07 AM
Distance/Time
Traveled:
453nm/1:37
Distance/Time
To Go:
Arrived

Flight Plot

Page will automatically refresh every two minutes.

Flight plan parsing failed; only flown route is shown


Map Options




Map Legend


Flown Route
Filed Route
Departure Airport
Arrival Airport
Navaid (VOR, NDB)
Fix

Horizontal Profiles

Position Reports

Time Latitude Longitude Heading Altitude Ground
Speed
21-Aug-23 08:50 47.482794 -111.358270 183 3666ft 0kts
21-Aug-23 08:51 47.482794 -111.358270 183 3666ft 0kts
21-Aug-23 08:52 47.482794 -111.358270 183 3666ft 0kts
21-Aug-23 08:53 47.482794 -111.358270 183 3666ft 0kts
21-Aug-23 08:54 47.482794 -111.358270 183 3666ft 0kts
21-Aug-23 08:55 47.482794 -111.358270 183 3666ft 0kts
21-Aug-23 08:56 47.482794 -111.358270 183 3666ft 0kts
21-Aug-23 08:57 47.482794 -111.358270 183 3666ft 0kts
21-Aug-23 08:58 47.482794 -111.358270 183 3666ft 0kts
21-Aug-23 08:59 47.482794 -111.358270 183 3666ft 0kts
21-Aug-23 09:00 47.482794 -111.358270 183 3666ft 0kts
21-Aug-23 09:01 47.482794 -111.358270 183 3666ft 0kts
21-Aug-23 09:02 47.482794 -111.358270 183 3666ft 0kts
21-Aug-23 09:03 47.482794 -111.358270 183 3666ft 0kts
21-Aug-23 09:04 47.482794 -111.358270 183 3666ft 0kts
21-Aug-23 09:05 47.482794 -111.358270 183 3666ft 0kts
21-Aug-23 09:06 47.482794 -111.358270 183 3666ft 0kts
21-Aug-23 09:07 47.482794 -111.358270 183 3666ft 0kts
21-Aug-23 09:08 47.482794 -111.358270 183 3666ft 0kts
21-Aug-23 09:09 47.482794 -111.358270 183 3666ft 0kts
21-Aug-23 09:10 47.482794 -111.358270 183 3666ft 0kts
21-Aug-23 09:11 47.482794 -111.358270 183 3666ft 0kts
21-Aug-23 09:12 47.482794 -111.358270 183 3666ft 0kts
21-Aug-23 09:13 47.482794 -111.358270 183 3666ft 0kts
21-Aug-23 09:14 47.482794 -111.358270 183 3666ft 0kts
21-Aug-23 09:14 47.482773 -111.358281 211 3666ft 0kts
21-Aug-23 09:16 47.483780 -111.358909 312 3666ft 1kts
21-Aug-23 09:17 47.482818 -111.361200 225 3669ft 11kts
21-Aug-23 09:18 47.480416 -111.364743 225 3671ft 10kts
21-Aug-23 09:18 47.478697 -111.367278 225 3671ft 11kts
21-Aug-23 09:19 47.476518 -111.370491 225 3671ft 11kts
21-Aug-23 09:21 47.474230 -111.373885 225 3673ft 8kts
21-Aug-23 09:22 47.472474 -111.376476 225 3674ft 10kts
21-Aug-23 09:22 47.471012 -111.378646 225 3676ft 10kts
21-Aug-23 09:23 47.469415 -111.381021 227 3681ft 3kts
21-Aug-23 09:24 47.469342 -111.381137 227 3681ft 0kts
21-Aug-23 09:25 47.469341 -111.381138 227 3681ft 0kts
21-Aug-23 09:27 47.468808 -111.382499 281 3683ft 0kts
21-Aug-23 09:27 47.468808 -111.382499 281 3683ft 0kts
21-Aug-23 09:28 47.470272 -111.382444 45 3678ft 12kts
21-Aug-23 09:29 47.494002 -111.346438 49 5151ft 192kts
21-Aug-23 09:30 47.528570 -111.287460 54 8970ft 208kts
21-Aug-23 09:31 47.522694 -111.221366 173 11913ft 169kts
21-Aug-23 09:32 47.489129 -111.256992 243 13968ft 171kts
21-Aug-23 09:33 47.472032 -111.323549 245 16282ft 174kts
21-Aug-23 09:34 47.455159 -111.392340 242 18379ft 182kts
21-Aug-23 09:35 47.451171 -111.468925 260 20370ft 199kts
21-Aug-23 09:36 47.452713 -111.551769 259 22797ft 210kts
21-Aug-23 09:37 47.454353 -111.642086 260 24836ft 229kts
21-Aug-23 09:38 47.455983 -111.736124 260 27041ft 233kts
21-Aug-23 09:39 47.457666 -111.833939 260 28837ft 245kts
21-Aug-23 09:40 47.459285 -111.940757 263 29643ft 288kts
21-Aug-23 09:41 47.461118 -112.059147 263 31427ft 288kts
21-Aug-23 09:42 47.462861 -112.181294 262 32745ft 299kts
21-Aug-23 09:43 47.464401 -112.301605 262 34486ft 291kts
21-Aug-23 09:44 47.465749 -112.420319 261 35819ft 293kts
21-Aug-23 09:45 47.467105 -112.542236 260 37103ft 293kts
21-Aug-23 09:46 47.468297 -112.662419 258 38387ft 290kts
21-Aug-23 09:47 47.469284 -112.784852 258 38793ft 314kts
21-Aug-23 09:48 47.470256 -112.920352 260 38788ft 348kts
21-Aug-23 09:49 47.471229 -113.066562 260 38819ft 360kts
21-Aug-23 09:50 47.471989 -113.213882 260 38812ft 358kts
21-Aug-23 09:51 47.472520 -113.361469 260 38810ft 365kts
21-Aug-23 09:52 47.472873 -113.508225 260 38798ft 352kts
21-Aug-23 09:53 47.473088 -113.653076 259 38760ft 362kts
21-Aug-23 09:54 47.473067 -113.802490 259 38746ft 361kts
21-Aug-23 09:55 47.472849 -113.947969 259 38698ft 352kts
21-Aug-23 09:56 47.472438 -114.094761 260 38674ft 364kts
21-Aug-23 09:57 47.471877 -114.240842 259 38720ft 352kts
21-Aug-23 09:58 47.471101 -114.387715 259 38741ft 366kts
21-Aug-23 09:59 47.470212 -114.536293 259 38746ft 356kts
21-Aug-23 10:00 47.469032 -114.681461 259 38719ft 357kts
21-Aug-23 10:01 47.467718 -114.829434 258 38754ft 361kts
21-Aug-23 10:02 47.466196 -114.975397 258 38750ft 354kts
21-Aug-23 10:03 47.464529 -115.121251 258 38693ft 359kts
21-Aug-23 10:04 47.462610 -115.268968 259 38699ft 356kts
21-Aug-23 10:05 47.460580 -115.413189 258 38705ft 356kts
21-Aug-23 10:06 47.458306 -115.561565 258 38712ft 360kts
21-Aug-23 10:07 47.460695 -115.707218 264 38693ft 357kts
21-Aug-23 10:08 47.470000 -115.856169 264 38673ft 373kts
21-Aug-23 10:09 47.479157 -116.005554 263 38623ft 356kts
21-Aug-23 10:10 47.487748 -116.151750 264 38560ft 368kts
21-Aug-23 10:11 47.496561 -116.302271 263 38544ft 361kts
21-Aug-23 10:12 47.504716 -116.446775 263 38551ft 358kts
21-Aug-23 10:13 47.513113 -116.597631 263 38523ft 372kts
21-Aug-23 10:14 47.521191 -116.745014 262 38513ft 351kts
21-Aug-23 10:15 47.528871 -116.891630 263 38513ft 370kts
21-Aug-23 10:16 47.536619 -117.040457 262 38845ft 358kts
21-Aug-23 10:17 47.543887 -117.185238 261 39432ft 352kts
21-Aug-23 10:18 47.550898 -117.327918 262 40034ft 346kts
21-Aug-23 10:19 47.557687 -117.469810 262 40244ft 350kts
21-Aug-23 10:20 47.564404 -117.614758 262 40196ft 358kts
21-Aug-23 10:21 47.578166 -117.763808 266 40202ft 371kts
21-Aug-23 10:22 47.592651 -117.915959 266 40233ft 376kts
21-Aug-23 10:23 47.607177 -118.070204 265 40188ft 383kts
21-Aug-23 10:24 47.621622 -118.227056 266 40217ft 385kts
21-Aug-23 10:25 47.635842 -118.383124 266 40208ft 380kts
21-Aug-23 10:26 47.649617 -118.536540 265 40225ft 373kts
21-Aug-23 10:27 47.662849 -118.687027 264 40245ft 367kts
21-Aug-23 10:28 47.675840 -118.835729 264 40254ft 363kts
21-Aug-23 10:29 47.688397 -118.983031 264 40253ft 360kts
21-Aug-23 10:30 47.700743 -119.129700 264 40263ft 358kts
21-Aug-23 10:31 47.712848 -119.274708 263 39630ft 350kts
21-Aug-23 10:32 47.724287 -119.415522 262 38533ft 341kts
21-Aug-23 10:33 47.735472 -119.555161 262 37459ft 348kts
21-Aug-23 10:34 47.746964 -119.700623 263 36098ft 366kts
21-Aug-23 10:35 47.758910 -119.854468 263 34502ft 384kts
21-Aug-23 10:36 47.771204 -120.014234 264 33159ft 396kts
21-Aug-23 10:37 47.783428 -120.178294 265 31941ft 403kts
21-Aug-23 10:38 47.795322 -120.340061 266 30654ft 389kts
21-Aug-23 10:39 47.806716 -120.497354 266 29376ft 378kts
21-Aug-23 10:40 47.817559 -120.651049 267 28080ft 371kts
21-Aug-23 10:41 47.828009 -120.801770 267 26833ft 363kts
21-Aug-23 10:42 47.838064 -120.949132 268 25557ft 355kts
21-Aug-23 10:43 47.847753 -121.093908 269 24308ft 349kts
21-Aug-23 10:44 47.857042 -121.235923 269 23038ft 342kts
21-Aug-23 10:45 47.865977 -121.374907 269 21740ft 336kts
21-Aug-23 10:46 47.874615 -121.511895 270 20454ft 329kts
21-Aug-23 10:47 47.882880 -121.646030 270 19160ft 324kts
21-Aug-23 10:48 47.890920 -121.778140 270 17894ft 318kts
21-Aug-23 10:49 47.898930 -121.912994 270 16648ft 339kts
21-Aug-23 10:50 47.906999 -122.050787 270 16276ft 326kts
21-Aug-23 10:51 47.914466 -122.181884 270 16270ft 312kts
21-Aug-23 10:52 47.947798 -122.293277 336 16241ft 343kts
21-Aug-23 10:53 48.044672 -122.314191 346 15595ft 350kts
21-Aug-23 10:54 48.136079 -122.340409 346 14128ft 325kts
21-Aug-23 10:55 48.222230 -122.365506 348 11605ft 309kts
21-Aug-23 10:56 48.304474 -122.389536 349 9097ft 297kts
21-Aug-23 10:57 48.380879 -122.422780 337 7148ft 265kts
21-Aug-23 10:58 48.442200 -122.459623 338 6716ft 230kts
21-Aug-23 10:59 48.503430 -122.496426 337 5284ft 243kts
21-Aug-23 11:00 48.564965 -122.533547 337 4053ft 220kts
21-Aug-23 11:01 48.614820 -122.536889 0 3769ft 164kts
21-Aug-23 11:02 48.658067 -122.536941 359 3054ft 148kts
21-Aug-23 11:03 48.700344 -122.537141 358 1974ft 155kts
21-Aug-23 11:04 48.737831 -122.537071 0 1091ft 123kts
21-Aug-23 11:05 48.771108 -122.537345 357 433ft 115kts
21-Aug-23 11:06 48.797846 -122.537554 1 158ft 33kts
21-Aug-23 11:07 48.801258 -122.535688 178 149ft 11kts
21-Aug-23 11:08 48.798610 -122.535841 179 156ft 13kts
21-Aug-23 11:09 48.794781 -122.535812 171 160ft 7kts
21-Aug-23 11:10 48.793841 -122.532963 130 159ft 5kts
21-Aug-23 11:11 48.793663 -122.531799 140 161ft 0kts
21-Aug-23 11:12 48.793663 -122.531799 140 161ft 0kts

Navigation Log

Ident Type
Flight plan parsing failed, navigation log unavailable